Hlavní strana
METAR-TAF:

METAR-TAF

Letiště :

Recife, Pernambuco, Brazílie

zeměpisná šířka: 08-08S, zeměpisná délka: 034-55W, výška: 19 m

Aktuální stav počasí

Zpráva byla vytvořena před 21 minutami, v 13:00 UTC
Východní vítr 8 kt, proměnlivý mezi severoseverovýchodním a východojihovýchodním
Teplota 28°C
Vlhkost vzduchu 55%
Tlak 1013 hPa
Viditelnost 10 km a více
Polojasno ve výšce 2300 ft

METAR: SBRF 191300Z 08008KT 020V120 9999 SCT023 28/18 Q1013

Čas: 10:21 (13:21 UTC)

Předpověď počasí

Zpráva byla vytvořena před 4 hodinami a 21 minutami, v 09:00 UTC
Předpověď platná od 19 v 12 UTC do 20 v 12 UTC
Východní vítr 8 kt
Viditelnost 10 km a více
Polojasno ve výšce 2200 ft

TAF: SBRF 190900Z 1912/2012 08008KT 9999 SCT022 TX28/1915Z TN25/2009Z RMK PEA

Stav a předpovědi počasí z více než 4 000 letišť (zprávy METAR a TAF).

Červené a žluté tečky na mapě představují dostupné meteorologické stanice.

Když kurzor umístíte na tečku, zobrazí se název stanice.

Pak kliknutím zobrazíte stav a předpověď počasí.

Chcete-li změnit mapu, kliknutím na zelené tlačítko se znaménkem +mapu přiblížíte, kliknutím na zelené tlačítko se znaménkem – mapu oddálíte a kliknutím na zelené šipky přejdete na sousední mapy.


METAR-TAF: